sensor_id;sensor_type;location;lat;lon;timestamp;temperature;humidity
3069;DHT22;1545;51.728;8.796;2024-02-15T00:00:12;12.00;98.80
3069;DHT22;1545;51.728;8.796;2024-02-15T00:02:37;12.00;98.80
3069;DHT22;1545;51.728;8.796;2024-02-15T00:05:03;12.00;98.80
3069;DHT22;1545;51.728;8.796;2024-02-15T00:07:29;12.00;98.80
3069;DHT22;1545;51.728;8.796;2024-02-15T00:09:54;12.00;98.80
3069;DHT22;1545;51.728;8.796;2024-02-15T00:12:20;12.00;98.80
3069;DHT22;1545;51.728;8.796;2024-02-15T00:14:46;12.00;98.80
3069;DHT22;1545;51.728;8.796;2024-02-15T00:17:11;12.00;98.80
3069;DHT22;1545;51.728;8.796;2024-02-15T00:19:37;12.00;98.80
3069;DHT22;1545;51.728;8.796;2024-02-15T00:22:05;12.00;98.80
3069;DHT22;1545;51.728;8.796;2024-02-15T00:24:31;12.00;98.80
3069;DHT22;1545;51.728;8.796;2024-02-15T00:26:56;12.00;98.80
3069;DHT22;1545;51.728;8.796;2024-02-15T00:29:22;12.00;98.80
3069;DHT22;1545;51.728;8.796;2024-02-15T00:31:48;11.90;98.80
3069;DHT22;1545;51.728;8.796;2024-02-15T00:34:15;11.90;98.80
3069;DHT22;1545;51.728;8.796;2024-02-15T00:36:44;11.90;98.80
3069;DHT22;1545;51.728;8.796;2024-02-15T00:39:10;11.90;98.80
3069;DHT22;1545;51.728;8.796;2024-02-15T00:41:37;11.90;98.80
3069;DHT22;1545;51.728;8.796;2024-02-15T00:44:02;11.90;98.80
3069;DHT22;1545;51.728;8.796;2024-02-15T00:46:29;11.90;98.80
3069;DHT22;1545;51.728;8.796;2024-02-15T00:48:55;11.90;98.80
3069;DHT22;1545;51.728;8.796;2024-02-15T00:51:21;11.90;98.80
3069;DHT22;1545;51.728;8.796;2024-02-15T00:53:46;11.90;98.80
3069;DHT22;1545;51.728;8.796;2024-02-15T00:56:11;12.00;98.80
3069;DHT22;1545;51.728;8.796;2024-02-15T00:58:37;12.00;98.80
3069;DHT22;1545;51.728;8.796;2024-02-15T01:01:02;11.90;98.80
3069;DHT22;1545;51.728;8.796;2024-02-15T01:03:28;12.00;98.80
3069;DHT22;1545;51.728;8.796;2024-02-15T01:05:53;12.00;98.80
3069;DHT22;1545;51.728;8.796;2024-02-15T01:08:19;12.00;98.80
3069;DHT22;1545;51.728;8.796;2024-02-15T01:10:45;12.00;98.80
3069;DHT22;1545;51.728;8.796;2024-02-15T01:13:11;11.90;98.80
3069;DHT22;1545;51.728;8.796;2024-02-15T01:15:37;11.90;98.80
3069;DHT22;1545;51.728;8.796;2024-02-15T01:18:04;11.90;98.80
3069;DHT22;1545;51.728;8.796;2024-02-15T01:20:30;11.80;98.80
3069;DHT22;1545;51.728;8.796;2024-02-15T01:22:56;11.80;98.80
3069;DHT22;1545;51.728;8.796;2024-02-15T01:25:21;11.80;98.80
3069;DHT22;1545;51.728;8.796;2024-02-15T01:27:47;11.70;98.80
3069;DHT22;1545;51.728;8.796;2024-02-15T01:30:13;11.70;98.80
3069;DHT22;1545;51.728;8.796;2024-02-15T01:32:38;11.70;98.80
3069;DHT22;1545;51.728;8.796;2024-02-15T01:35:07;11.70;98.80
3069;DHT22;1545;51.728;8.796;2024-02-15T01:37:33;11.60;98.80
3069;DHT22;1545;51.728;8.796;2024-02-15T01:39:58;11.60;98.80
3069;DHT22;1545;51.728;8.796;2024-02-15T01:42:24;11.60;98.80
3069;DHT22;1545;51.728;8.796;2024-02-15T01:44:49;11.60;98.80
3069;DHT22;1545;51.728;8.796;2024-02-15T01:47:17;11.60;98.80
3069;DHT22;1545;51.728;8.796;2024-02-15T01:49:44;11.60;98.80
3069;DHT22;1545;51.728;8.796;2024-02-15T01:52:10;11.60;98.80
3069;DHT22;1545;51.728;8.796;2024-02-15T01:54:36;11.60;98.80
3069;DHT22;1545;51.728;8.796;2024-02-15T01:57:04;11.60;98.80
3069;DHT22;1545;51.728;8.796;2024-02-15T01:59:30;11.60;98.80
3069;DHT22;1545;51.728;8.796;2024-02-15T02:01:56;11.70;98.80
3069;DHT22;1545;51.728;8.796;2024-02-15T02:04:22;11.70;98.80
3069;DHT22;1545;51.728;8.796;2024-02-15T02:06:47;11.60;98.80
3069;DHT22;1545;51.728;8.796;2024-02-15T02:09:13;11.60;98.80
3069;DHT22;1545;51.728;8.796;2024-02-15T02:11:44;11.60;98.80
3069;DHT22;1545;51.728;8.796;2024-02-15T02:14:10;11.60;98.80
3069;DHT22;1545;51.728;8.796;2024-02-15T02:16:37;11.60;98.80
3069;DHT22;1545;51.728;8.796;2024-02-15T02:19:04;11.60;98.80
3069;DHT22;1545;51.728;8.796;2024-02-15T02:21:35;11.60;98.80
3069;DHT22;1545;51.728;8.796;2024-02-15T02:24:03;11.70;98.80
3069;DHT22;1545;51.728;8.796;2024-02-15T02:26:34;11.60;98.80
3069;DHT22;1545;51.728;8.796;2024-02-15T02:29:00;11.60;98.80
3069;DHT22;1545;51.728;8.796;2024-02-15T02:31:33;11.60;98.80
3069;DHT22;1545;51.728;8.796;2024-02-15T02:33:59;11.60;98.80
3069;DHT22;1545;51.728;8.796;2024-02-15T02:36:25;11.60;98.80
3069;DHT22;1545;51.728;8.796;2024-02-15T02:38:52;11.60;98.80
3069;DHT22;1545;51.728;8.796;2024-02-15T02:41:17;11.60;98.80
3069;DHT22;1545;51.728;8.796;2024-02-15T02:43:46;11.70;98.80
3069;DHT22;1545;51.728;8.796;2024-02-15T02:46:12;11.60;98.80
3069;DHT22;1545;51.728;8.796;2024-02-15T02:48:38;11.60;98.80
3069;DHT22;1545;51.728;8.796;2024-02-15T02:51:04;11.60;98.80
3069;DHT22;1545;51.728;8.796;2024-02-15T02:53:29;11.60;98.80
3069;DHT22;1545;51.728;8.796;2024-02-15T02:55:56;11.60;98.80
3069;DHT22;1545;51.728;8.796;2024-02-15T02:58:22;11.60;98.80
3069;DHT22;1545;51.728;8.796;2024-02-15T03:00:51;11.70;98.80
3069;DHT22;1545;51.728;8.796;2024-02-15T03:03:17;11.70;98.80
3069;DHT22;1545;51.728;8.796;2024-02-15T03:05:44;11.70;98.80
3069;DHT22;1545;51.728;8.796;2024-02-15T03:08:11;11.70;98.80
3069;DHT22;1545;51.728;8.796;2024-02-15T03:10:38;11.70;98.80
3069;DHT22;1545;51.728;8.796;2024-02-15T03:13:04;11.70;98.80
3069;DHT22;1545;51.728;8.796;2024-02-15T03:15:30;11.70;98.80
3069;DHT22;1545;51.728;8.796;2024-02-15T03:17:58;11.70;98.80
3069;DHT22;1545;51.728;8.796;2024-02-15T03:20:23;11.80;98.80
3069;DHT22;1545;51.728;8.796;2024-02-15T03:22:56;11.80;98.80
3069;DHT22;1545;51.728;8.796;2024-02-15T03:25:23;11.80;98.80
3069;DHT22;1545;51.728;8.796;2024-02-15T03:27:51;11.80;98.80
3069;DHT22;1545;51.728;8.796;2024-02-15T03:30:18;11.80;98.80
3069;DHT22;1545;51.728;8.796;2024-02-15T03:32:45;11.80;98.80
3069;DHT22;1545;51.728;8.796;2024-02-15T03:35:11;11.80;98.80
3069;DHT22;1545;51.728;8.796;2024-02-15T03:37:39;11.80;98.80
3069;DHT22;1545;51.728;8.796;2024-02-15T03:40:05;11.80;98.80
3069;DHT22;1545;51.728;8.796;2024-02-15T03:42:31;11.80;98.80
3069;DHT22;1545;51.728;8.796;2024-02-15T03:44:56;11.80;98.80
3069;DHT22;1545;51.728;8.796;2024-02-15T03:47:22;11.90;98.80
3069;DHT22;1545;51.728;8.796;2024-02-15T03:49:48;11.90;98.80
3069;DHT22;1545;51.728;8.796;2024-02-15T03:52:13;11.90;98.80
3069;DHT22;1545;51.728;8.796;2024-02-15T03:54:39;11.90;98.80
3069;DHT22;1545;51.728;8.796;2024-02-15T03:57:08;11.90;98.80
3069;DHT22;1545;51.728;8.796;2024-02-15T03:59:33;11.80;98.80
3069;DHT22;1545;51.728;8.796;2024-02-15T04:02:00;11.90;98.80
3069;DHT22;1545;51.728;8.796;2024-02-15T04:04:28;11.80;98.80
3069;DHT22;1545;51.728;8.796;2024-02-15T04:06:55;11.80;98.80
3069;DHT22;1545;51.728;8.796;2024-02-15T04:09:21;11.80;98.80
3069;DHT22;1545;51.728;8.796;2024-02-15T04:11:47;11.80;98.80
3069;DHT22;1545;51.728;8.796;2024-02-15T04:14:18;11.80;98.80
3069;DHT22;1545;51.728;8.796;2024-02-15T04:16:44;11.80;98.80
3069;DHT22;1545;51.728;8.796;2024-02-15T04:19:13;11.80;98.80
3069;DHT22;1545;51.728;8.796;2024-02-15T04:21:39;11.80;98.80
3069;DHT22;1545;51.728;8.796;2024-02-15T04:24:05;11.80;98.80
3069;DHT22;1545;51.728;8.796;2024-02-15T04:26:31;11.80;98.80
3069;DHT22;1545;51.728;8.796;2024-02-15T04:28:57;11.80;98.80
3069;DHT22;1545;51.728;8.796;2024-02-15T04:31:24;11.80;98.80
3069;DHT22;1545;51.728;8.796;2024-02-15T04:33:52;11.80;98.80
3069;DHT22;1545;51.728;8.796;2024-02-15T04:36:18;11.80;98.80
3069;DHT22;1545;51.728;8.796;2024-02-15T04:38:49;11.80;98.80
3069;DHT22;1545;51.728;8.796;2024-02-15T04:41:16;11.80;98.80
3069;DHT22;1545;51.728;8.796;2024-02-15T04:43:46;11.80;98.80
3069;DHT22;1545;51.728;8.796;2024-02-15T04:46:12;11.80;98.80
3069;DHT22;1545;51.728;8.796;2024-02-15T04:48:39;11.80;98.80
3069;DHT22;1545;51.728;8.796;2024-02-15T04:51:07;11.70;98.80
3069;DHT22;1545;51.728;8.796;2024-02-15T04:53:32;11.70;98.80
3069;DHT22;1545;51.728;8.796;2024-02-15T04:55:58;11.70;98.80
3069;DHT22;1545;51.728;8.796;2024-02-15T04:58:26;11.70;98.80
3069;DHT22;1545;51.728;8.796;2024-02-15T05:00:54;11.70;98.80
3069;DHT22;1545;51.728;8.796;2024-02-15T05:03:24;11.70;98.80
3069;DHT22;1545;51.728;8.796;2024-02-15T05:05:49;11.60;98.80
3069;DHT22;1545;51.728;8.796;2024-02-15T05:08:15;11.70;98.80
3069;DHT22;1545;51.728;8.796;2024-02-15T05:10:41;11.70;98.80
3069;DHT22;1545;51.728;8.796;2024-02-15T05:13:06;11.60;98.80
3069;DHT22;1545;51.728;8.796;2024-02-15T05:15:32;11.60;98.80
3069;DHT22;1545;51.728;8.796;2024-02-15T05:17:58;11.60;98.80
3069;DHT22;1545;51.728;8.796;2024-02-15T05:20:26;11.60;98.80
3069;DHT22;1545;51.728;8.796;2024-02-15T05:22:52;11.60;98.80
3069;DHT22;1545;51.728;8.796;2024-02-15T05:25:19;11.60;98.80
3069;DHT22;1545;51.728;8.796;2024-02-15T05:27:48;11.60;98.80
3069;DHT22;1545;51.728;8.796;2024-02-15T05:30:14;11.60;98.80
3069;DHT22;1545;51.728;8.796;2024-02-15T05:32:40;11.60;98.80
3069;DHT22;1545;51.728;8.796;2024-02-15T05:35:10;11.60;98.80
3069;DHT22;1545;51.728;8.796;2024-02-15T05:37:37;11.60;98.80
3069;DHT22;1545;51.728;8.796;2024-02-15T05:40:02;11.60;98.80
3069;DHT22;1545;51.728;8.796;2024-02-15T05:42:29;11.60;98.80
3069;DHT22;1545;51.728;8.796;2024-02-15T05:44:55;11.50;98.80
3069;DHT22;1545;51.728;8.796;2024-02-15T05:47:20;11.50;98.80
3069;DHT22;1545;51.728;8.796;2024-02-15T05:49:46;11.40;98.80
3069;DHT22;1545;51.728;8.796;2024-02-15T05:52:12;11.40;98.80
3069;DHT22;1545;51.728;8.796;2024-02-15T05:54:38;11.50;98.80
3069;DHT22;1545;51.728;8.796;2024-02-15T05:57:04;11.50;98.80
3069;DHT22;1545;51.728;8.796;2024-02-15T05:59:30;11.50;98.80
3069;DHT22;1545;51.728;8.796;2024-02-15T06:01:56;11.50;98.80
3069;DHT22;1545;51.728;8.796;2024-02-15T06:04:21;11.40;98.80
3069;DHT22;1545;51.728;8.796;2024-02-15T06:06:48;11.50;98.80
3069;DHT22;1545;51.728;8.796;2024-02-15T06:09:16;11.50;98.80
3069;DHT22;1545;51.728;8.796;2024-02-15T06:11:41;11.60;98.80
3069;DHT22;1545;51.728;8.796;2024-02-15T06:14:09;11.50;98.80
3069;DHT22;1545;51.728;8.796;2024-02-15T06:16:44;11.60;98.80
3069;DHT22;1545;51.728;8.796;2024-02-15T06:19:10;11.60;98.80
3069;DHT22;1545;51.728;8.796;2024-02-15T06:21:35;11.60;98.80
3069;DHT22;1545;51.728;8.796;2024-02-15T06:24:00;11.60;98.80
3069;DHT22;1545;51.728;8.796;2024-02-15T06:26:26;11.60;98.80
3069;DHT22;1545;51.728;8.796;2024-02-15T06:28:51;11.60;98.80
3069;DHT22;1545;51.728;8.796;2024-02-15T06:31:35;11.60;98.80
3069;DHT22;1545;51.728;8.796;2024-02-15T06:34:19;11.60;98.80
3069;DHT22;1545;51.728;8.796;2024-02-15T06:37:03;11.60;98.80
3069;DHT22;1545;51.728;8.796;2024-02-15T06:39:48;11.60;98.80
3069;DHT22;1545;51.728;8.796;2024-02-15T06:42:15;11.70;98.80
3069;DHT22;1545;51.728;8.796;2024-02-15T06:44:46;11.80;98.80
3069;DHT22;1545;51.728;8.796;2024-02-15T06:47:12;11.90;98.80
3069;DHT22;1545;51.728;8.796;2024-02-15T06:49:41;12.10;98.80
3069;DHT22;1545;51.728;8.796;2024-02-15T06:52:07;12.10;98.80
3069;DHT22;1545;51.728;8.796;2024-02-15T06:54:38;12.20;98.80
3069;DHT22;1545;51.728;8.796;2024-02-15T06:57:04;12.20;98.80
3069;DHT22;1545;51.728;8.796;2024-02-15T06:59:30;12.30;98.80
3069;DHT22;1545;51.728;8.796;2024-02-15T07:02:00;12.30;98.80
3069;DHT22;1545;51.728;8.796;2024-02-15T07:04:25;12.30;98.80
3069;DHT22;1545;51.728;8.796;2024-02-15T07:06:52;12.30;98.80
3069;DHT22;1545;51.728;8.796;2024-02-15T07:09:20;12.30;98.80
3069;DHT22;1545;51.728;8.796;2024-02-15T07:11:45;12.30;98.80
3069;DHT22;1545;51.728;8.796;2024-02-15T07:14:14;12.30;98.80
3069;DHT22;1545;51.728;8.796;2024-02-15T07:16:44;12.30;98.80
3069;DHT22;1545;51.728;8.796;2024-02-15T07:19:10;12.30;98.80
3069;DHT22;1545;51.728;8.796;2024-02-15T07:21:35;12.40;98.80
3069;DHT22;1545;51.728;8.796;2024-02-15T07:24:01;12.40;98.80
3069;DHT22;1545;51.728;8.796;2024-02-15T07:26:27;12.40;98.80
3069;DHT22;1545;51.728;8.796;2024-02-15T07:28:53;12.40;98.80
3069;DHT22;1545;51.728;8.796;2024-02-15T07:31:20;12.40;98.80
3069;DHT22;1545;51.728;8.796;2024-02-15T07:33:47;12.40;98.80
3069;DHT22;1545;51.728;8.796;2024-02-15T07:36:13;12.50;98.80
3069;DHT22;1545;51.728;8.796;2024-02-15T07:38:39;12.60;98.80
3069;DHT22;1545;51.728;8.796;2024-02-15T07:41:04;12.60;98.80
3069;DHT22;1545;51.728;8.796;2024-02-15T07:43:30;12.70;98.80
3069;DHT22;1545;51.728;8.796;2024-02-15T07:45:56;12.70;98.80
3069;DHT22;1545;51.728;8.796;2024-02-15T07:48:21;12.80;98.80
3069;DHT22;1545;51.728;8.796;2024-02-15T07:50:47;12.80;98.80
3069;DHT22;1545;51.728;8.796;2024-02-15T07:53:13;12.90;98.80
3069;DHT22;1545;51.728;8.796;2024-02-15T07:55:39;12.90;98.80
3069;DHT22;1545;51.728;8.796;2024-02-15T07:58:05;12.90;98.80
3069;DHT22;1545;51.728;8.796;2024-02-15T08:00:30;12.90;98.80
3069;DHT22;1545;51.728;8.796;2024-02-15T08:02:59;13.00;98.80
3069;DHT22;1545;51.728;8.796;2024-02-15T08:05:24;13.00;98.80
3069;DHT22;1545;51.728;8.796;2024-02-15T08:07:50;13.10;98.80
3069;DHT22;1545;51.728;8.796;2024-02-15T08:10:16;13.10;98.80
3069;DHT22;1545;51.728;8.796;2024-02-15T08:12:42;13.20;98.80
3069;DHT22;1545;51.728;8.796;2024-02-15T08:15:09;13.30;98.80
3069;DHT22;1545;51.728;8.796;2024-02-15T08:17:39;13.30;98.80
3069;DHT22;1545;51.728;8.796;2024-02-15T08:20:07;13.40;98.80
3069;DHT22;1545;51.728;8.796;2024-02-15T08:22:33;13.50;98.80
3069;DHT22;1545;51.728;8.796;2024-02-15T08:24:59;13.50;98.80
3069;DHT22;1545;51.728;8.796;2024-02-15T08:27:25;13.60;98.80
3069;DHT22;1545;51.728;8.796;2024-02-15T08:29:51;13.70;98.80
3069;DHT22;1545;51.728;8.796;2024-02-15T08:32:16;13.70;98.80
3069;DHT22;1545;51.728;8.796;2024-02-15T08:34:42;13.80;98.80
3069;DHT22;1545;51.728;8.796;2024-02-15T08:37:07;13.90;98.80
3069;DHT22;1545;51.728;8.796;2024-02-15T08:39:33;14.00;98.80
3069;DHT22;1545;51.728;8.796;2024-02-15T08:41:58;14.00;98.80
3069;DHT22;1545;51.728;8.796;2024-02-15T08:44:24;14.00;98.80
3069;DHT22;1545;51.728;8.796;2024-02-15T08:46:50;14.00;98.30
3069;DHT22;1545;51.728;8.796;2024-02-15T08:49:15;13.90;98.80
3069;DHT22;1545;51.728;8.796;2024-02-15T08:51:41;13.80;98.80
3069;DHT22;1545;51.728;8.796;2024-02-15T08:54:06;13.70;98.80
3069;DHT22;1545;51.728;8.796;2024-02-15T08:56:34;13.60;98.80
3069;DHT22;1545;51.728;8.796;2024-02-15T08:59:00;13.50;98.80
3069;DHT22;1545;51.728;8.796;2024-02-15T09:01:25;13.50;98.80
3069;DHT22;1545;51.728;8.796;2024-02-15T09:03:51;13.50;98.80
3069;DHT22;1545;51.728;8.796;2024-02-15T09:06:16;13.50;98.80
3069;DHT22;1545;51.728;8.796;2024-02-15T09:08:42;13.60;98.80
3069;DHT22;1545;51.728;8.796;2024-02-15T09:11:07;13.50;98.80
3069;DHT22;1545;51.728;8.796;2024-02-15T09:13:37;13.60;98.80
3069;DHT22;1545;51.728;8.796;2024-02-15T09:16:03;13.60;98.80
3069;DHT22;1545;51.728;8.796;2024-02-15T09:18:28;13.50;98.80
3069;DHT22;1545;51.728;8.796;2024-02-15T09:20:54;13.40;98.80
3069;DHT22;1545;51.728;8.796;2024-02-15T09:23:21;13.40;98.80
3069;DHT22;1545;51.728;8.796;2024-02-15T09:25:49;13.30;98.80
3069;DHT22;1545;51.728;8.796;2024-02-15T09:28:17;13.30;98.80
3069;DHT22;1545;51.728;8.796;2024-02-15T09:30:47;13.20;98.80
3069;DHT22;1545;51.728;8.796;2024-02-15T09:33:13;13.20;98.80
3069;DHT22;1545;51.728;8.796;2024-02-15T09:35:38;13.20;98.80
3069;DHT22;1545;51.728;8.796;2024-02-15T09:38:04;13.20;98.80
3069;DHT22;1545;51.728;8.796;2024-02-15T09:40:31;13.20;98.80
3069;DHT22;1545;51.728;8.796;2024-02-15T09:42:57;13.00;98.80
3069;DHT22;1545;51.728;8.796;2024-02-15T09:45:22;12.90;98.80
3069;DHT22;1545;51.728;8.796;2024-02-15T09:47:50;12.90;98.80
3069;DHT22;1545;51.728;8.796;2024-02-15T09:50:17;12.90;98.80
3069;DHT22;1545;51.728;8.796;2024-02-15T09:52:52;12.90;98.80
3069;DHT22;1545;51.728;8.796;2024-02-15T09:55:20;13.00;98.80
3069;DHT22;1545;51.728;8.796;2024-02-15T09:57:49;13.00;98.80
3069;DHT22;1545;51.728;8.796;2024-02-15T10:00:15;13.10;98.80
3069;DHT22;1545;51.728;8.796;2024-02-15T10:02:43;13.20;98.80
3069;DHT22;1545;51.728;8.796;2024-02-15T10:05:10;13.30;98.80
3069;DHT22;1545;51.728;8.796;2024-02-15T10:07:40;13.40;98.80
3069;DHT22;1545;51.728;8.796;2024-02-15T10:10:21;13.50;98.80
3069;DHT22;1545;51.728;8.796;2024-02-15T10:12:47;13.60;98.80
3069;DHT22;1545;51.728;8.796;2024-02-15T10:15:34;13.50;98.80
3069;DHT22;1545;51.728;8.796;2024-02-15T10:18:01;13.50;98.80
3069;DHT22;1545;51.728;8.796;2024-02-15T10:20:27;13.40;98.80
3069;DHT22;1545;51.728;8.796;2024-02-15T10:23:09;13.30;98.80
3069;DHT22;1545;51.728;8.796;2024-02-15T10:25:35;13.20;98.80
3069;DHT22;1545;51.728;8.796;2024-02-15T10:30:33;13.20;98.80
3069;DHT22;1545;51.728;8.796;2024-02-15T10:32:59;13.10;98.80
3069;DHT22;1545;51.728;8.796;2024-02-15T10:35:24;13.10;98.80
3069;DHT22;1545;51.728;8.796;2024-02-15T10:37:50;13.10;98.80
3069;DHT22;1545;51.728;8.796;2024-02-15T10:40:22;13.20;98.80
3069;DHT22;1545;51.728;8.796;2024-02-15T10:42:51;13.20;98.80
3069;DHT22;1545;51.728;8.796;2024-02-15T10:45:17;13.20;98.80
3069;DHT22;1545;51.728;8.796;2024-02-15T10:47:46;13.30;98.80
3069;DHT22;1545;51.728;8.796;2024-02-15T10:50:13;13.30;98.80
3069;DHT22;1545;51.728;8.796;2024-02-15T10:52:48;13.40;98.80
3069;DHT22;1545;51.728;8.796;2024-02-15T10:55:26;13.40;98.80
3069;DHT22;1545;51.728;8.796;2024-02-15T10:57:55;13.40;98.80
3069;DHT22;1545;51.728;8.796;2024-02-15T11:00:26;13.30;98.80
3069;DHT22;1545;51.728;8.796;2024-02-15T11:03:04;13.30;98.80
3069;DHT22;1545;51.728;8.796;2024-02-15T11:05:34;13.30;98.80
3069;DHT22;1545;51.728;8.796;2024-02-15T11:08:04;13.30;98.80
3069;DHT22;1545;51.728;8.796;2024-02-15T11:10:32;13.30;98.80
3069;DHT22;1545;51.728;8.796;2024-02-15T11:12:59;13.30;98.80
3069;DHT22;1545;51.728;8.796;2024-02-15T11:15:44;13.30;98.80
3069;DHT22;1545;51.728;8.796;2024-02-15T11:18:41;13.30;98.80
3069;DHT22;1545;51.728;8.796;2024-02-15T11:21:07;13.40;98.80
3069;DHT22;1545;51.728;8.796;2024-02-15T11:23:32;13.40;98.80
3069;DHT22;1545;51.728;8.796;2024-02-15T11:25:58;13.40;98.80
3069;DHT22;1545;51.728;8.796;2024-02-15T11:30:53;13.50;98.80
3069;DHT22;1545;51.728;8.796;2024-02-15T11:33:32;13.50;98.80
3069;DHT22;1545;51.728;8.796;2024-02-15T11:36:13;13.50;98.80
3069;DHT22;1545;51.728;8.796;2024-02-15T11:38:40;13.50;98.80
3069;DHT22;1545;51.728;8.796;2024-02-15T11:41:07;13.50;98.80
3069;DHT22;1545;51.728;8.796;2024-02-15T11:43:48;13.50;98.80
3069;DHT22;1545;51.728;8.796;2024-02-15T11:46:19;13.50;98.80
3069;DHT22;1545;51.728;8.796;2024-02-15T11:48:48;13.60;98.80
3069;DHT22;1545;51.728;8.796;2024-02-15T11:51:33;13.60;98.80
3069;DHT22;1545;51.728;8.796;2024-02-15T11:54:05;13.70;98.80
3069;DHT22;1545;51.728;8.796;2024-02-15T11:56:32;13.80;98.80
3069;DHT22;1545;51.728;8.796;2024-02-15T11:59:04;13.80;98.80
3069;DHT22;1545;51.728;8.796;2024-02-15T12:01:32;13.80;98.80
3069;DHT22;1545;51.728;8.796;2024-02-15T12:04:16;13.70;98.80
3069;DHT22;1545;51.728;8.796;2024-02-15T12:07:00;13.70;98.80
3069;DHT22;1545;51.728;8.796;2024-02-15T12:09:44;13.50;98.80
3069;DHT22;1545;51.728;8.796;2024-02-15T12:12:28;13.20;98.80
3069;DHT22;1545;51.728;8.796;2024-02-15T12:15:12;13.20;98.80
3069;DHT22;1545;51.728;8.796;2024-02-15T12:18:17;13.10;98.80
3069;DHT22;1545;51.728;8.796;2024-02-15T12:21:01;12.90;98.80
3069;DHT22;1545;51.728;8.796;2024-02-15T12:23:28;12.80;98.80
3069;DHT22;1545;51.728;8.796;2024-02-15T12:25:57;12.80;98.80
3069;DHT22;1545;51.728;8.796;2024-02-15T12:28:23;12.80;98.80
3069;DHT22;1545;51.728;8.796;2024-02-15T12:30:55;12.90;98.80
3069;DHT22;1545;51.728;8.796;2024-02-15T12:33:21;12.90;98.80
3069;DHT22;1545;51.728;8.796;2024-02-15T12:35:47;13.00;98.80
3069;DHT22;1545;51.728;8.796;2024-02-15T12:38:13;13.00;98.80
3069;DHT22;1545;51.728;8.796;2024-02-15T12:40:42;12.90;98.80
3069;DHT22;1545;51.728;8.796;2024-02-15T12:43:08;12.90;98.80
3069;DHT22;1545;51.728;8.796;2024-02-15T12:45:39;12.90;98.80
3069;DHT22;1545;51.728;8.796;2024-02-15T12:48:07;12.90;98.80
3069;DHT22;1545;51.728;8.796;2024-02-15T12:50:36;12.80;98.80
3069;DHT22;1545;51.728;8.796;2024-02-15T12:53:01;12.90;98.80
3069;DHT22;1545;51.728;8.796;2024-02-15T12:55:38;12.90;98.80
3069;DHT22;1545;51.728;8.796;2024-02-15T12:58:06;12.90;98.80
3069;DHT22;1545;51.728;8.796;2024-02-15T13:00:35;13.00;98.80
3069;DHT22;1545;51.728;8.796;2024-02-15T13:03:06;13.10;98.80
3069;DHT22;1545;51.728;8.796;2024-02-15T13:05:35;13.20;98.80
3069;DHT22;1545;51.728;8.796;2024-02-15T13:08:04;13.30;98.80
3069;DHT22;1545;51.728;8.796;2024-02-15T13:10:35;13.40;98.80
3069;DHT22;1545;51.728;8.796;2024-02-15T13:13:00;13.40;98.80
3069;DHT22;1545;51.728;8.796;2024-02-15T13:15:26;13.50;98.80
3069;DHT22;1545;51.728;8.796;2024-02-15T13:17:53;13.60;98.80
3069;DHT22;1545;51.728;8.796;2024-02-15T13:20:20;13.60;98.80
3069;DHT22;1545;51.728;8.796;2024-02-15T13:22:52;13.70;98.80
3069;DHT22;1545;51.728;8.796;2024-02-15T13:25:19;13.60;98.80
3069;DHT22;1545;51.728;8.796;2024-02-15T13:27:46;13.60;98.80
3069;DHT22;1545;51.728;8.796;2024-02-15T13:30:12;13.70;98.80
3069;DHT22;1545;51.728;8.796;2024-02-15T13:32:41;13.70;98.80
3069;DHT22;1545;51.728;8.796;2024-02-15T13:35:10;13.70;98.80
3069;DHT22;1545;51.728;8.796;2024-02-15T13:40:15;13.80;98.80
3069;DHT22;1545;51.728;8.796;2024-02-15T13:42:44;13.90;98.80
3069;DHT22;1545;51.728;8.796;2024-02-15T13:45:15;14.00;98.80
3069;DHT22;1545;51.728;8.796;2024-02-15T13:47:44;14.10;98.80
3069;DHT22;1545;51.728;8.796;2024-02-15T13:50:11;14.20;98.80
3069;DHT22;1545;51.728;8.796;2024-02-15T13:52:40;14.20;98.80
3069;DHT22;1545;51.728;8.796;2024-02-15T13:55:09;14.20;98.80
3069;DHT22;1545;51.728;8.796;2024-02-15T13:57:37;14.30;98.80
3069;DHT22;1545;51.728;8.796;2024-02-15T14:00:02;14.30;98.80
3069;DHT22;1545;51.728;8.796;2024-02-15T14:02:31;14.30;98.80
3069;DHT22;1545;51.728;8.796;2024-02-15T14:04:56;14.30;98.80
3069;DHT22;1545;51.728;8.796;2024-02-15T14:07:22;14.30;98.80
3069;DHT22;1545;51.728;8.796;2024-02-15T14:09:47;14.30;98.80
3069;DHT22;1545;51.728;8.796;2024-02-15T14:12:13;14.30;98.80
3069;DHT22;1545;51.728;8.796;2024-02-15T14:14:40;14.40;98.80
3069;DHT22;1545;51.728;8.796;2024-02-15T14:17:05;14.50;98.80
3069;DHT22;1545;51.728;8.796;2024-02-15T14:19:31;14.70;98.80
3069;DHT22;1545;51.728;8.796;2024-02-15T14:21:56;14.90;98.80
3069;DHT22;1545;51.728;8.796;2024-02-15T14:24:23;14.90;98.80
3069;DHT22;1545;51.728;8.796;2024-02-15T14:26:48;14.90;98.80
3069;DHT22;1545;51.728;8.796;2024-02-15T14:29:14;15.00;98.80
3069;DHT22;1545;51.728;8.796;2024-02-15T14:31:40;15.00;98.80
3069;DHT22;1545;51.728;8.796;2024-02-15T14:34:24;15.00;98.80
3069;DHT22;1545;51.728;8.796;2024-02-15T14:36:53;15.00;98.80
3069;DHT22;1545;51.728;8.796;2024-02-15T14:39:19;15.10;98.80
3069;DHT22;1545;51.728;8.796;2024-02-15T14:41:44;15.20;98.80
3069;DHT22;1545;51.728;8.796;2024-02-15T14:44:10;15.10;98.80
3069;DHT22;1545;51.728;8.796;2024-02-15T14:46:37;15.10;98.80
3069;DHT22;1545;51.728;8.796;2024-02-15T14:49:03;15.00;98.80
3069;DHT22;1545;51.728;8.796;2024-02-15T14:51:29;15.10;98.80
3069;DHT22;1545;51.728;8.796;2024-02-15T14:53:57;15.00;98.80
3069;DHT22;1545;51.728;8.796;2024-02-15T14:56:23;15.00;98.80
3069;DHT22;1545;51.728;8.796;2024-02-15T14:58:49;15.00;98.80
3069;DHT22;1545;51.728;8.796;2024-02-15T15:01:14;14.90;98.80
3069;DHT22;1545;51.728;8.796;2024-02-15T15:03:40;14.70;98.80
3069;DHT22;1545;51.728;8.796;2024-02-15T15:06:07;14.80;98.80
3069;DHT22;1545;51.728;8.796;2024-02-15T15:08:51;14.60;98.80
3069;DHT22;1545;51.728;8.796;2024-02-15T15:11:35;14.60;98.80
3069;DHT22;1545;51.728;8.796;2024-02-15T15:14:19;14.40;98.80
3069;DHT22;1545;51.728;8.796;2024-02-15T15:16:45;14.40;98.80
3069;DHT22;1545;51.728;8.796;2024-02-15T15:19:10;14.30;98.80
3069;DHT22;1545;51.728;8.796;2024-02-15T15:21:36;14.20;98.80
3069;DHT22;1545;51.728;8.796;2024-02-15T15:24:01;14.20;98.80
3069;DHT22;1545;51.728;8.796;2024-02-15T15:26:27;14.20;98.80
3069;DHT22;1545;51.728;8.796;2024-02-15T15:28:52;14.10;98.80
3069;DHT22;1545;51.728;8.796;2024-02-15T15:31:20;14.00;98.80
3069;DHT22;1545;51.728;8.796;2024-02-15T15:33:46;13.90;98.80
3069;DHT22;1545;51.728;8.796;2024-02-15T15:36:11;13.90;98.80
3069;DHT22;1545;51.728;8.796;2024-02-15T15:38:37;13.80;98.80
3069;DHT22;1545;51.728;8.796;2024-02-15T15:41:02;13.70;98.80
3069;DHT22;1545;51.728;8.796;2024-02-15T15:43:31;13.60;98.80
3069;DHT22;1545;51.728;8.796;2024-02-15T15:45:57;13.60;98.80
3069;DHT22;1545;51.728;8.796;2024-02-15T15:48:23;13.50;98.80
3069;DHT22;1545;51.728;8.796;2024-02-15T15:50:49;13.40;98.80
3069;DHT22;1545;51.728;8.796;2024-02-15T15:53:14;13.40;98.80
3069;DHT22;1545;51.728;8.796;2024-02-15T15:55:40;13.30;98.80
3069;DHT22;1545;51.728;8.796;2024-02-15T15:58:05;13.30;98.80
3069;DHT22;1545;51.728;8.796;2024-02-15T16:00:34;13.20;98.80
3069;DHT22;1545;51.728;8.796;2024-02-15T16:03:00;13.20;98.80
3069;DHT22;1545;51.728;8.796;2024-02-15T16:05:27;13.20;98.80
3069;DHT22;1545;51.728;8.796;2024-02-15T16:07:52;13.10;98.80
3069;DHT22;1545;51.728;8.796;2024-02-15T16:10:18;13.10;98.80
3069;DHT22;1545;51.728;8.796;2024-02-15T16:12:45;13.10;98.80